Time;durP1;ratioP1;P1;durP2;ratioP2;P2;SDS_P1;SDS_P2;PMS_P1;PMS_P2;Temp;Humidity;BMP_temperature;BMP_pressure;BME280_temperature;BME280_humidity;BME280_pressure;Samples;Min_cycle;Max_cycle;Signal;HPM_P1;HPM_P2
2021/05/24 00:01:04;;;;;;;4.68;1.02;;;11.40;72.90;;;;;;5119246;27;20017;-81
2021/05/24 00:03:31;;;;;;;3.65;1.27;;;11.30;73.20;;;;;;5136172;27;20027;-80
2021/05/24 00:05:58;;;;;;;3.20;1.10;;;11.30;74.10;;;;;;5119104;27;20049;-79
2021/05/24 00:08:24;;;;;;;4.20;1.20;;;11.30;73.90;;;;;;5135925;27;20092;-79
2021/05/24 00:10:50;;;;;;;7.63;1.90;;;11.30;73.90;;;;;;5136548;27;20128;-79
2021/05/24 00:13:19;;;;;;;3.53;1.40;;;11.30;73.80;;;;;;5153566;27;20039;-79
2021/05/24 00:15:53;;;;;;;5.80;1.45;;;11.20;73.70;;;;;;5136175;27;20033;-79
2021/05/24 00:18:19;;;;;;;4.88;1.27;;;11.20;73.80;;;;;;5153568;27;20035;-78
2021/05/24 00:21:09;;;;;;;5.43;1.42;;;11.20;73.80;;;;;;5153365;27;20031;-79
2021/05/24 00:23:36;;;;;;;5.07;1.80;;;11.20;73.70;;;;;;5135913;27;20196;-79
2021/05/24 00:26:02;;;;;;;;;;;11.20;73.70;;;;;;5136462;27;20483;-78
2021/05/24 00:28:28;;;;;;;10.85;1.98;;;11.10;72.90;;;;;;5135692;27;19918;-80
2021/05/24 00:30:55;;;;;;;4.30;1.85;;;11.20;73.40;;;;;;5135376;27;20059;-78
2021/05/24 00:33:21;;;;;;;6.07;1.60;;;11.20;73.50;;;;;;5118870;27;20031;-80
2021/05/24 00:35:47;;;;;;;;;;;11.10;73.60;;;;;;5136487;27;20437;-79
2021/05/24 00:38:13;;;;;;;8.68;1.70;;;11.10;72.90;;;;;;5135964;27;20306;-79
2021/05/24 00:40:41;;;;;;;4.05;1.33;;;11.10;73.70;;;;;;5135677;27;20106;-79
2021/05/24 00:43:10;;;;;;;4.45;1.38;;;11.10;73.70;;;;;;5118495;27;20039;-79
2021/05/24 00:45:38;;;;;;;4.25;1.45;;;11.10;73.80;;;;;;5153142;27;20592;-80
2021/05/24 00:48:07;;;;;;;4.13;1.00;;;11.10;73.80;;;;;;5135895;27;20035;-80
2021/05/24 00:50:34;;;;;;;4.55;1.85;;;11.10;73.80;;;;;;5135623;27;20064;-79
2021/05/24 00:53:00;;;;;;;4.68;1.15;;;11.00;73.70;;;;;;5118248;27;20046;-80
2021/05/24 00:55:26;;;;;;;;;;;11.00;73.80;;;;;;5135837;27;20034;-79
2021/05/24 00:57:53;;;;;;;4.13;1.38;;;11.00;73.00;;;;;;5135427;27;19919;-79
2021/05/24 01:00:57;;;;;;;5.00;1.48;;;11.00;73.60;;;;;;5152275;27;20027;-78
2021/05/24 01:03:24;;;;;;;5.07;1.45;;;11.00;73.80;;;;;;5135235;27;20031;-79
2021/05/24 01:05:51;;;;;;;4.28;1.45;;;10.90;73.90;;;;;;5135386;27;20030;-78
2021/05/24 01:08:17;;;;;;;5.07;1.90;;;11.00;73.90;;;;;;5117751;27;20498;-79
2021/05/24 01:10:45;;;;;;;5.43;2.00;;;10.90;74.80;;;;;;5136136;27;20065;-79
2021/05/24 01:13:13;;;;;;;4.40;1.70;;;10.80;73.80;;;;;;5136659;27;20095;-78
2021/05/24 01:15:41;;;;;;;5.25;1.95;;;10.90;73.60;;;;;;5152162;27;20076;-80
2021/05/24 01:18:08;;;;;;;3.78;1.60;;;10.80;73.60;;;;;;5152275;27;20035;-79
2021/05/24 01:20:35;;;;;;;5.50;1.40;;;10.80;74.10;;;;;;5117676;27;20023;-79
2021/05/24 01:25:49;;;;;;;5.05;1.50;;;10.80;74.20;;;;;;5136234;27;20031;-79
2021/05/24 01:28:18;;;;;;;3.80;1.25;;;10.80;74.40;;;;;;5152174;27;20113;-80
2021/05/24 01:30:46;;;;;;;4.38;1.42;;;10.80;74.20;;;;;;5136018;27;20065;-80
2021/05/24 01:33:13;;;;;;;4.93;1.33;;;10.80;74.30;;;;;;5134635;27;20451;-78
2021/05/24 01:35:41;;;;;;;2.92;1.20;;;10.80;74.40;;;;;;5117290;27;20031;-79
2021/05/24 01:38:09;;;;;;;5.07;1.58;;;10.80;74.40;;;;;;5117444;27;20035;-80
2021/05/24 01:40:37;;;;;;;2.95;1.08;;;10.80;74.50;;;;;;5134167;27;20035;-79
2021/05/24 01:43:05;;;;;;;3.10;1.10;;;10.80;74.50;;;;;;5134256;27;20028;-78
2021/05/24 01:45:31;;;;;;;3.67;1.02;;;10.80;74.50;;;;;;5117609;27;20027;-80
2021/05/24 01:47:58;;;;;;;4.35;1.27;;;10.70;74.50;;;;;;5134368;27;20038;-79
2021/05/24 01:50:24;;;;;;;3.28;1.20;;;10.70;74.60;;;;;;5117285;27;20041;-78
2021/05/24 01:52:52;;;;;;;3.72;1.02;;;10.80;74.60;;;;;;5117421;27;20498;-80
2021/05/24 01:55:18;;;;;;;5.60;1.10;;;10.80;74.40;;;;;;5117042;27;20066;-79
2021/05/24 01:57:45;;;;;;;2.45;0.77;;;10.70;74.30;;;;;;5134518;27;20360;-80
2021/05/24 02:00:32;;;;;;;3.63;1.33;;;10.70;74.40;;;;;;5116759;27;20113;-80
2021/05/24 02:02:59;;;;;;;2.45;0.98;;;10.70;74.20;;;;;;5133939;27;20042;-79
2021/05/24 02:05:27;;;;;;;2.55;0.90;;;10.60;73.90;;;;;;5134130;27;20035;-78
2021/05/24 02:07:55;;;;;;;2.40;0.70;;;10.50;73.90;;;;;;5133696;27;20055;-78
2021/05/24 02:10:42;;;;;;;2.17;0.65;;;10.40;73.70;;;;;;5133927;27;20086;-78
2021/05/24 02:13:08;;;;;;;1.65;0.70;;;10.40;74.00;;;;;;5133892;27;20084;-78
2021/05/24 02:15:39;;;;;;;2.40;0.65;;;10.30;73.30;;;;;;5133787;27;20056;-79
2021/05/24 02:18:06;;;;;;;2.80;0.80;;;10.40;73.70;;;;;;5133419;27;20039;-79
2021/05/24 02:20:34;;;;;;;4.75;0.80;;;10.40;73.70;;;;;;5116590;27;20235;-79
2021/05/24 02:23:03;;;;;;;4.65;0.80;;;10.30;73.40;;;;;;5150993;27;20063;-79
2021/05/24 02:25:29;;;;;;;4.38;0.73;;;10.40;73.80;;;;;;5133642;27;20487;-79
2021/05/24 02:27:56;;;;;;;;;;;10.40;73.80;;;;;;5151462;27;20088;-79
2021/05/24 02:30:24;;;;;;;2.45;0.90;;;10.30;73.60;;;;;;5133822;27;19911;-79
2021/05/24 02:32:51;;;;;;;2.95;0.75;;;10.20;73.40;;;;;;5133700;27;20122;-79
2021/05/24 02:35:20;;;;;;;5.88;0.75;;;10.10;73.40;;;;;;5116281;27;20034;-79
2021/05/24 02:37:47;;;;;;;4.82;0.90;;;10.10;73.60;;;;;;5150768;27;20043;-79
2021/05/24 02:40:17;;;;;;;1.98;0.70;;;10.20;73.70;;;;;;5133096;27;20027;-79
2021/05/24 02:42:44;;;;;;;2.53;0.50;;;10.20;73.60;;;;;;5135004;27;20038;-79
2021/05/24 02:45:13;;;;;;;2.13;0.60;;;10.20;73.60;;;;;;5133373;27;20038;-80
2021/05/24 02:47:40;;;;;;;2.13;0.70;;;10.20;73.60;;;;;;5116646;28;20050;-80
2021/05/24 02:50:08;;;;;;;;;;;10.20;73.70;;;;;;5133910;27;20042;-78
2021/05/24 02:52:35;;;;;;;2.35;0.68;;;10.30;73.40;;;;;;5133352;27;19929;-79
2021/05/24 02:55:21;;;;;;;6.63;0.90;;;10.20;72.90;;;;;;5133029;27;20023;-78
2021/05/24 02:57:47;;;;;;;6.03;1.70;;;10.20;73.50;;;;;;5133440;27;20487;-79
2021/05/24 03:00:14;;;;;;;;;;;10.20;73.60;;;;;;5150934;27;20034;-79
2021/05/24 03:05:26;;;;;;;2.30;0.70;;;10.10;73.40;;;;;;5148069;27;20127;-79
2021/05/24 03:07:53;;;;;;;4.70;1.08;;;10.10;73.40;;;;;;5149878;27;20075;-78
2021/05/24 03:10:42;;;;;;;1.90;0.77;;;10.10;73.20;;;;;;5115790;28;20501;-79
2021/05/24 03:13:08;;;;;;;3.33;0.77;;;10.10;73.10;;;;;;5116200;28;20039;-79
2021/05/24 03:15:35;;;;;;;4.47;0.90;;;10.10;73.20;;;;;;5133089;28;20059;-78
2021/05/24 03:18:02;;;;;;;3.80;0.90;;;10.20;72.90;;;;;;5133118;28;20035;-78
2021/05/24 03:20:28;;;;;;;2.53;0.88;;;10.30;72.40;;;;;;5132937;28;20478;-78
2021/05/24 03:22:54;;;;;;;;;;;10.30;72.30;;;;;;5116302;28;20107;-78
2021/05/24 03:25:21;;;;;;;3.03;1.00;;;10.40;72.00;;;;;;5132588;28;20006;-79
2021/05/24 03:27:47;;;;;;;6.90;1.10;;;10.40;72.60;;;;;;5134437;27;20031;-78
2021/05/24 03:30:15;;;;;;;10.30;3.58;;;10.50;72.20;;;;;;5133900;27;20111;-79
2021/05/24 03:32:42;;;;;;;8.10;2.78;;;10.50;72.70;;;;;;5133027;28;20068;-79
2021/05/24 03:35:10;;;;;;;6.45;1.48;;;10.60;72.80;;;;;;5132818;28;20031;-79
2021/05/24 03:37:37;;;;;;;6.13;1.58;;;10.70;72.80;;;;;;5134268;27;20039;-79
2021/05/24 03:40:07;;;;;;;5.40;1.90;;;10.70;72.90;;;;;;5150136;27;20024;-79
2021/05/24 03:42:34;;;;;;;7.25;1.48;;;10.70;73.00;;;;;;5132965;28;20031;-79
2021/05/24 03:45:01;;;;;;;8.85;1.27;;;10.70;73.00;;;;;;5132662;28;20023;-79
2021/05/24 03:47:28;;;;;;;5.35;1.30;;;10.80;73.10;;;;;;5116044;28;20047;-79
2021/05/24 03:49:54;;;;;;;8.25;1.40;;;10.80;73.10;;;;;;5132389;28;20031;-79
2021/05/24 03:52:21;;;;;;;7.85;1.15;;;10.80;73.20;;;;;;5149736;27;20068;-79
2021/05/24 03:54:47;;;;;;;;;;;10.90;73.30;;;;;;5133318;28;20091;-79
2021/05/24 03:57:13;;;;;;;2.63;0.90;;;10.80;72.40;;;;;;5132550;28;19927;-79
2021/05/24 03:59:40;;;;;;;2.42;0.93;;;10.80;73.30;;;;;;5115313;28;20030;-79
2021/05/24 04:02:07;;;;;;;4.25;1.00;;;10.80;72.90;;;;;;5132571;28;20393;-79
2021/05/24 04:04:34;;;;;;;4.97;1.10;;;10.80;73.40;;;;;;5133637;27;20434;-78
2021/05/24 04:07:03;;;;;;;2.75;1.08;;;10.80;72.80;;;;;;5136003;27;20114;-78
2021/05/24 04:09:29;;;;;;;1.83;0.70;;;10.80;73.40;;;;;;5153055;27;20035;-79
2021/05/24 04:11:56;;;;;;;3.42;1.05;;;10.80;73.50;;;;;;5137373;27;20039;-80
2021/05/24 04:14:22;;;;;;;4.35;1.23;;;10.80;73.90;;;;;;5135985;27;20080;-79
2021/05/24 04:16:48;;;;;;;3.20;1.10;;;10.80;73.90;;;;;;5153275;27;20047;-78
2021/05/24 04:19:15;;;;;;;4.03;1.20;;;10.90;73.60;;;;;;5137028;27;20084;-78
2021/05/24 04:21:44;;;;;;;3.72;1.25;;;11.00;73.30;;;;;;5135781;27;20088;-79
2021/05/24 04:24:12;;;;;;;3.38;1.10;;;11.10;73.20;;;;;;5118496;27;20027;-78
2021/05/24 04:26:39;;;;;;;3.60;1.00;;;11.20;73.00;;;;;;5153230;27;20398;-78
2021/05/24 04:29:06;;;;;;;2.80;1.10;;;11.30;73.00;;;;;;5153226;27;20031;-79
2021/05/24 04:31:35;;;;;;;4.82;1.48;;;11.30;73.20;;;;;;5135833;27;20031;-79
2021/05/24 04:34:02;;;;;;;4.35;1.70;;;11.40;73.10;;;;;;5135680;27;20023;-79
2021/05/24 04:36:28;;;;;;;3.30;1.30;;;11.40;73.20;;;;;;5135571;27;20031;-79
2021/05/24 04:38:54;;;;;;;;;;;11.40;73.20;;;;;;5153252;27;20089;-78
2021/05/24 04:41:21;;;;;;;7.45;1.40;;;11.50;72.50;;;;;;5136709;27;19927;-78
2021/05/24 04:43:47;;;;;;;4.25;1.40;;;11.40;73.20;;;;;;5152817;27;20502;-79
2021/05/24 04:46:14;;;;;;;8.10;1.40;;;11.50;73.30;;;;;;5154346;27;20482;-78
2021/05/24 04:48:40;;;;;;;3.00;1.10;;;11.50;73.30;;;;;;5140689;27;20031;-79
2021/05/24 04:51:06;;;;;;;;;;;11.60;73.10;;;;;;5136901;27;20031;-78
2021/05/24 04:53:33;;;;;;;33.53;15.27;;;11.70;72.30;;;;;;5135299;27;19911;-78
2021/05/24 04:56:00;;;;;;;29.70;14.18;;;11.70;72.20;;;;;;5136239;27;20031;-78
2021/05/24 04:58:26;;;;;;;12.75;3.63;;;11.70;72.30;;;;;;5136226;27;20059;-79
2021/05/24 05:00:53;;;;;;;8.35;3.50;;;11.80;72.20;;;;;;5117727;27;20023;-78
2021/05/24 05:03:19;;;;;;;10.30;5.70;;;11.90;72.90;;;;;;5135198;27;20038;-78
2021/05/24 05:05:46;;;;;;;12.13;6.32;;;11.90;72.90;;;;;;5135131;27;20493;-78
2021/05/24 05:08:12;;;;;;;5.97;2.22;;;12.00;72.80;;;;;;5134677;27;20486;-79
2021/05/24 05:10:38;;;;;;;33.55;14.07;;;12.00;72.80;;;;;;5136208;27;20078;-78
2021/05/24 05:13:04;;;;;;;;;;;12.10;72.60;;;;;;5136844;27;20050;-78
2021/05/24 05:15:34;;;;;;;4.75;1.67;;;12.20;71.80;;;;;;5134855;27;19911;-77
2021/05/24 05:18:00;;;;;;;10.00;6.20;;;12.20;72.10;;;;;;5134649;27;20035;-79
2021/05/24 05:20:27;;;;;;;23.15;9.77;;;12.30;72.10;;;;;;5134833;27;20449;-78
2021/05/24 05:22:53;;;;;;;7.57;2.85;;;12.30;71.80;;;;;;5134668;27;20040;-78
2021/05/24 05:25:19;;;;;;;;;;;12.40;71.80;;;;;;5134935;27;20034;-78
2021/05/24 05:27:46;;;;;;;5.40;1.38;;;12.40;71.10;;;;;;5134751;27;19927;-78
2021/05/24 05:30:13;;;;;;;3.55;1.27;;;12.50;71.80;;;;;;5134430;27;20038;-79
2021/05/24 05:32:39;;;;;;;3.67;1.30;;;12.50;71.90;;;;;;5117357;27;20039;-78
2021/05/24 05:35:06;;;;;;;;;;;12.50;72.20;;;;;;5134761;27;20066;-79
2021/05/24 05:37:33;;;;;;;6.30;1.55;;;12.50;71.90;;;;;;5117394;27;19919;-78
2021/05/24 05:39:59;;;;;;;4.97;1.75;;;12.60;71.90;;;;;;5135495;27;20038;-78
2021/05/24 05:42:26;;;;;;;5.00;1.80;;;12.60;72.00;;;;;;5134295;27;20035;-78
2021/05/24 05:44:52;;;;;;;3.78;1.42;;;12.60;72.30;;;;;;5117039;27;20066;-78
2021/05/24 05:47:19;;;;;;;3.47;1.30;;;12.60;72.70;;;;;;5134187;27;20091;-78
2021/05/24 05:49:48;;;;;;;5.88;1.42;;;12.70;72.80;;;;;;5135234;27;20114;-77
2021/05/24 05:52:17;;;;;;;7.22;2.10;;;12.70;72.70;;;;;;5133852;27;20038;-78
2021/05/24 05:55:05;;;;;;;5.40;1.70;;;12.80;72.30;;;;;;5116850;27;20049;-78
2021/05/24 05:57:32;;;;;;;4.47;1.83;;;12.90;72.40;;;;;;5116790;27;20038;-78
2021/05/24 05:59:58;;;;;;;4.65;1.70;;;12.90;72.50;;;;;;5116571;27;20035;-78
2021/05/24 06:02:24;;;;;;;;;;;13.00;72.60;;;;;;5134514;27;20050;-78
2021/05/24 06:04:50;;;;;;;5.35;2.25;;;13.00;72.40;;;;;;5133988;27;19922;-78
2021/05/24 06:07:19;;;;;;;;;;;13.10;72.50;;;;;;5134118;27;20055;-78
2021/05/24 06:09:45;;;;;;;11.50;5.28;;;13.20;72.10;;;;;;5116757;27;20007;-77
2021/05/24 06:12:11;;;;;;;;;;;13.20;72.20;;;;;;5117198;27;20031;-78
2021/05/24 06:14:38;;;;;;;6.63;1.95;;;13.20;71.80;;;;;;5116356;27;19911;-78
2021/05/24 06:17:05;;;;;;;5.75;2.17;;;13.10;72.70;;;;;;5134945;27;20043;-79
2021/05/24 06:19:32;;;;;;;5.45;1.90;;;13.10;72.90;;;;;;5134718;27;20039;-78
2021/05/24 06:21:59;;;;;;;4.20;1.83;;;13.10;73.10;;;;;;5133530;27;20043;-79
2021/05/24 06:24:25;;;;;;;;;;;13.10;73.10;;;;;;5134015;27;20047;-79
2021/05/24 06:26:51;;;;;;;5.60;2.10;;;13.20;72.80;;;;;;5132970;27;19919;-78
2021/05/24 06:32:04;;;;;;;6.07;2.30;;;13.30;72.20;;;;;;5134858;27;20157;-79
2021/05/24 06:34:30;;;;;;;9.05;2.50;;;13.40;72.10;;;;;;5134315;27;20076;-78
2021/05/24 06:36:56;;;;;;;9.05;2.47;;;13.60;72.30;;;;;;5116170;27;20517;-78
2021/05/24 06:39:23;;;;;;;8.02;2.40;;;13.70;71.90;;;;;;5133321;27;20045;-78
2021/05/24 06:41:49;;;;;;;;;;;13.80;71.10;;;;;;5135057;27;20462;-78
2021/05/24 06:44:17;;;;;;;7.25;2.80;;;13.90;71.70;;;;;;5115755;27;19911;-78
2021/05/24 06:46:43;;;;;;;10.07;3.10;;;14.00;71.50;;;;;;5133124;27;20039;-78
2021/05/24 06:49:10;;;;;;;8.35;3.00;;;14.00;71.40;;;;;;5132955;27;20035;-78
2021/05/24 06:51:36;;;;;;;;;;;14.10;71.40;;;;;;5133501;28;20070;-78
2021/05/24 06:54:02;;;;;;;11.02;3.72;;;14.20;71.10;;;;;;5134082;27;19915;-78
2021/05/24 06:56:29;;;;;;;12.60;5.63;;;14.20;70.30;;;;;;5133072;27;20531;-80
2021/05/24 06:58:55;;;;;;;;;;;14.30;70.80;;;;;;5133556;27;20655;-80
2021/05/24 07:01:21;;;;;;;13.18;6.22;;;14.30;70.20;;;;;;5115804;28;20164;-79
2021/05/24 07:03:48;;;;;;;10.90;3.70;;;14.40;70.00;;;;;;5132956;28;20062;-80
2021/05/24 07:06:14;;;;;;;8.75;4.95;;;14.40;70.60;;;;;;5132870;28;20030;-79
2021/05/24 07:08:40;;;;;;;8.45;5.43;;;14.40;70.80;;;;;;5132862;28;20047;-79
2021/05/24 07:11:06;;;;;;;10.27;5.22;;;14.40;70.70;;;;;;5133959;27;20039;-79
2021/05/24 07:13:33;;;;;;;11.20;5.20;;;14.50;70.80;;;;;;5134243;27;20393;-79
2021/05/24 07:15:59;;;;;;;9.77;4.90;;;14.50;70.60;;;;;;5132983;28;20475;-79
2021/05/24 07:18:26;;;;;;;8.07;4.13;;;14.60;69.90;;;;;;5132790;28;20062;-79
2021/05/24 07:20:52;;;;;;;7.57;4.20;;;14.80;69.70;;;;;;5133888;27;20102;-79
2021/05/24 07:23:18;;;;;;;12.80;5.45;;;15.00;70.00;;;;;;5134720;27;20047;-80
2021/05/24 07:25:45;;;;;;;8.20;4.00;;;15.10;69.60;;;;;;5115710;28;20038;-79
2021/05/24 07:28:11;;;;;;;7.78;4.10;;;15.30;69.10;;;;;;5115739;28;20192;-80
2021/05/24 07:30:37;;;;;;;;;;;15.30;68.80;;;;;;5116245;28;20027;-80
2021/05/24 07:33:04;;;;;;;9.40;4.20;;;15.30;68.40;;;;;;5115628;28;19919;-81
2021/05/24 07:35:31;;;;;;;7.05;3.70;;;15.30;68.10;;;;;;5133001;28;20419;-81
2021/05/24 07:37:57;;;;;;;8.50;3.90;;;15.30;68.70;;;;;;5132778;28;20043;-80
2021/05/24 07:40:23;;;;;;;7.85;3.38;;;15.50;68.80;;;;;;5135178;27;20372;-81
2021/05/24 07:42:50;;;;;;;;;;;15.40;67.80;;;;;;5120472;27;20034;-82
2021/05/24 07:45:16;;;;;;;8.40;4.55;;;15.50;68.00;;;;;;5137992;27;19919;-83
2021/05/24 07:47:43;;;;;;;;;;;15.70;68.10;;;;;;5121353;27;20076;-82
2021/05/24 07:50:10;;;;;;;9.38;3.90;;;15.80;67.30;;;;;;5136862;27;19919;-83
2021/05/24 07:52:36;;;;;;;7.55;3.60;;;15.80;67.50;;;;;;5136866;27;20088;-81
2021/05/24 07:55:04;;;;;;;9.13;4.65;;;15.80;67.40;;;;;;5119627;27;20027;-82
2021/05/24 07:57:32;;;;;;;7.93;3.35;;;15.70;68.20;;;;;;5137913;27;20035;-82
2021/05/24 07:59:58;;;;;;;6.53;3.40;;;15.70;67.50;;;;;;5136705;27;20031;-82
2021/05/24 08:02:24;;;;;;;11.43;5.82;;;15.80;68.00;;;;;;5136904;27;20478;-82
2021/05/24 08:04:51;;;;;;;;;;;15.70;68.20;;;;;;5137112;27;20062;-83
2021/05/24 08:07:18;;;;;;;8.60;4.07;;;15.70;67.70;;;;;;5136377;27;19968;-83
2021/05/24 08:09:46;;;;;;;8.70;4.18;;;15.70;68.00;;;;;;5138127;27;20436;-82
2021/05/24 08:12:13;;;;;;;12.80;4.75;;;15.70;67.80;;;;;;5139625;27;20034;-82
2021/05/24 08:14:39;;;;;;;9.57;4.90;;;15.70;67.90;;;;;;5136709;27;20027;-82
2021/05/24 08:17:05;;;;;;;7.75;4.05;;;15.60;67.60;;;;;;5137695;27;20043;-82
2021/05/24 08:19:32;;;;;;;;;;;15.60;67.90;;;;;;5136946;27;20027;-82
2021/05/24 08:21:58;;;;;;;8.98;4.28;;;15.50;67.50;;;;;;5119045;27;19919;-81
2021/05/24 08:24:24;;;;;;;;;;;15.50;68.00;;;;;;5136516;27;20031;-81
2021/05/24 08:26:50;;;;;;;8.70;3.97;;;15.60;68.00;;;;;;5136016;27;19919;-80
2021/05/24 08:29:17;;;;;;;8.23;3.90;;;15.50;67.30;;;;;;5118597;27;20076;-81
2021/05/24 08:31:44;;;;;;;12.13;6.57;;;15.50;68.10;;;;;;5136003;27;20372;-81
2021/05/24 08:34:10;;;;;;;18.17;10.68;;;15.50;68.20;;;;;;5118420;27;20046;-81
2021/05/24 08:36:38;;;;;;;32.00;20.83;;;15.60;68.30;;;;;;5135678;27;20155;-81
2021/05/24 08:39:06;;;;;;;18.30;10.35;;;15.60;67.70;;;;;;5135739;27;20433;-80
2021/05/24 08:41:34;;;;;;;10.13;6.15;;;15.60;67.80;;;;;;5135842;27;20394;-80
2021/05/24 08:44:00;;;;;;;8.50;4.97;;;15.70;67.60;;;;;;5135417;27;20479;-79
2021/05/24 08:46:27;;;;;;;20.58;12.25;;;15.80;67.70;;;;;;5135474;27;20031;-79
2021/05/24 08:48:54;;;;;;;11.50;5.70;;;15.70;67.80;;;;;;5136372;27;20113;-80
2021/05/24 08:51:20;;;;;;;11.88;7.35;;;15.70;67.50;;;;;;5136175;27;20031;-79
2021/05/24 08:53:47;;;;;;;11.75;5.60;;;15.60;68.20;;;;;;5135118;27;20039;-80
2021/05/24 08:56:13;;;;;;;9.40;5.22;;;15.60;68.30;;;;;;5117929;27;20053;-79
2021/05/24 08:58:39;;;;;;;9.20;4.70;;;15.50;68.50;;;;;;5135000;27;20031;-80
2021/05/24 09:01:07;;;;;;;9.35;4.90;;;15.50;68.70;;;;;;5135140;27;20023;-81
2021/05/24 09:03:36;;;;;;;8.80;4.68;;;15.50;68.70;;;;;;5136188;27;20442;-81
2021/05/24 09:06:10;;;;;;;9.38;5.30;;;15.50;68.60;;;;;;5135013;27;20028;-79
2021/05/24 09:08:58;;;;;;;13.85;4.32;;;15.50;68.70;;;;;;5118361;27;20108;-79
2021/05/24 09:11:27;;;;;;;14.30;5.75;;;15.50;68.80;;;;;;5134902;27;20035;-79
2021/05/24 09:13:53;;;;;;;10.95;5.60;;;15.50;68.70;;;;;;5117950;27;20061;-79
2021/05/24 09:16:38;;;;;;;13.18;5.47;;;15.50;68.90;;;;;;5136418;27;20540;-79
2021/05/24 09:19:25;;;;;;;8.75;4.25;;;15.40;69.20;;;;;;5134571;27;20076;-80
2021/05/24 09:22:11;;;;;;;7.53;3.75;;;15.30;69.10;;;;;;5136018;27;20043;-80
2021/05/24 09:24:56;;;;;;;9.18;3.75;;;15.40;69.20;;;;;;5117459;27;20081;-78
2021/05/24 09:27:43;;;;;;;9.90;4.90;;;15.40;68.90;;;;;;5117839;27;20081;-80
2021/05/24 09:30:10;;;;;;;12.75;7.18;;;15.50;68.70;;;;;;5135918;27;20031;-80
2021/05/24 09:32:38;;;;;;;10.23;5.63;;;15.60;67.90;;;;;;5134616;27;20039;-80
2021/05/24 09:35:08;;;;;;;10.80;5.00;;;15.80;68.50;;;;;;5117451;27;20031;-79
2021/05/24 09:37:54;;;;;;;7.65;3.80;;;15.90;68.00;;;;;;5134603;27;20043;-79
2021/05/24 09:40:25;;;;;;;12.45;4.40;;;16.10;67.60;;;;;;5134405;27;20027;-80
2021/05/24 09:42:52;;;;;;;7.93;4.25;;;16.20;67.50;;;;;;5135970;27;20042;-80
2021/05/24 09:45:21;;;;;;;10.40;6.40;;;16.30;67.10;;;;;;5134254;27;20080;-80
2021/05/24 09:47:49;;;;;;;14.10;8.00;;;16.30;66.50;;;;;;5117463;27;20043;-81
2021/05/24 09:50:19;;;;;;;12.07;6.60;;;16.30;66.90;;;;;;5117144;27;20023;-80
2021/05/24 09:52:47;;;;;;;11.45;5.80;;;16.20;66.80;;;;;;5117498;27;20081;-80
2021/05/24 09:55:32;;;;;;;10.98;6.30;;;16.30;67.20;;;;;;5133930;27;20483;-81
2021/05/24 09:58:21;;;;;;;11.45;6.10;;;16.20;67.30;;;;;;5134152;27;20048;-79
2021/05/24 10:01:02;;;;;;;11.73;5.25;;;16.20;67.00;;;;;;5116818;27;20495;-80
2021/05/24 10:03:34;;;;;;;12.00;6.43;;;16.30;67.10;;;;;;5134437;27;20397;-79
2021/05/24 10:06:02;;;;;;;8.75;4.40;;;16.10;66.70;;;;;;5134937;27;20030;-79
2021/05/24 10:08:29;;;;;;;12.45;6.75;;;16.00;66.30;;;;;;5116644;27;20043;-80
2021/05/24 10:10:55;;;;;;;9.57;4.55;;;16.10;66.40;;;;;;5116679;27;20031;-80
2021/05/24 10:13:24;;;;;;;9.38;4.10;;;16.10;66.50;;;;;;5116420;27;20072;-79
2021/05/24 10:15:55;;;;;;;12.70;7.57;;;16.10;66.90;;;;;;5133888;27;20110;-81
2021/05/24 10:18:21;;;;;;;7.60;3.30;;;16.00;66.10;;;;;;5133517;27;20080;-79
2021/05/24 10:20:47;;;;;;;7.82;3.50;;;16.00;67.00;;;;;;5133511;27;20034;-80
2021/05/24 10:23:15;;;;;;;7.07;3.60;;;16.00;67.00;;;;;;5135045;27;20107;-80
2021/05/24 10:25:41;;;;;;;14.18;5.95;;;16.00;66.80;;;;;;5116351;27;20052;-79
2021/05/24 10:28:07;;;;;;;8.70;4.70;;;16.10;66.80;;;;;;5116269;27;20035;-80
2021/05/24 10:30:55;;;;;;;6.55;2.85;;;16.10;67.10;;;;;;5133365;27;20027;-79
2021/05/24 10:33:26;;;;;;;6.05;3.13;;;16.20;66.70;;;;;;5116111;27;20495;-82
2021/05/24 10:35:53;;;;;;;5.63;2.95;;;16.20;66.50;;;;;;5117104;27;20039;-80
2021/05/24 10:38:38;;;;;;;8.18;3.30;;;16.20;66.20;;;;;;5133559;27;20122;-80
2021/05/24 10:41:23;;;;;;;7.18;2.30;;;16.30;66.10;;;;;;5134469;27;20062;-80
2021/05/24 10:43:56;;;;;;;6.72;2.33;;;16.30;65.90;;;;;;5133393;27;20471;-80
2021/05/24 10:46:41;;;;;;;5.47;2.53;;;16.40;65.50;;;;;;5115974;28;20039;-81
2021/05/24 10:49:26;;;;;;;8.38;3.00;;;16.50;65.50;;;;;;5133112;27;20463;-80
2021/05/24 10:52:11;;;;;;;8.00;3.35;;;16.70;65.60;;;;;;5133270;27;20057;-80
2021/05/24 10:54:41;;;;;;;7.97;3.70;;;17.20;64.90;;;;;;5116168;28;20027;-81
2021/05/24 10:57:53;;;;;;;12.40;4.88;;;17.90;62.50;;;;;;5116535;27;20039;-82
2021/05/24 11:00:20;;;;;;;11.68;6.03;;;18.40;60.30;;;;;;5133374;27;20030;-82
2021/05/24 11:02:51;;;;;;;;;;;18.90;60.90;;;;;;5133877;28;20559;-84
2021/05/24 11:05:36;;;;;;;7.00;3.05;;;19.50;58.90;;;;;;5116269;28;19957;-82
2021/05/24 11:08:07;;;;;;;8.02;3.67;;;19.30;58.20;;;;;;5133297;28;20415;-83
2021/05/24 11:10:53;;;;;;;8.93;4.55;;;19.10;58.50;;;;;;5116382;28;20395;-82
2021/05/24 11:13:23;;;;;;;11.73;4.18;;;18.90;59.10;;;;;;5117308;27;20035;-84
2021/05/24 11:15:49;;;;;;;6.18;2.92;;;18.90;58.70;;;;;;5120737;27;20034;-82
2021/05/24 11:18:40;;;;;;;7.90;4.28;;;18.80;58.70;;;;;;5137638;27;20046;-83
2021/05/24 11:21:26;;;;;;;7.65;3.13;;;18.60;59.20;;;;;;5137541;27;20027;-82
2021/05/24 11:27:17;;;;;;;8.05;3.75;;;18.40;59.80;;;;;;5137789;27;20445;-82
2021/05/24 11:29:49;;;;;;;9.55;5.20;;;18.20;59.50;;;;;;5138393;27;20107;-82
2021/05/24 11:32:42;;;;;;;11.15;6.00;;;18.40;59.40;;;;;;5120862;27;20513;-83
2021/05/24 11:35:27;;;;;;;10.32;5.43;;;19.30;58.10;;;;;;5138190;27;20023;-82
2021/05/24 11:37:53;;;;;;;8.32;4.68;;;19.70;56.60;;;;;;5137600;27;20031;-83
2021/05/24 11:40:20;;;;;;;11.20;5.72;;;19.50;56.90;;;;;;5120046;27;20054;-83
2021/05/24 11:42:48;;;;;;;16.45;8.70;;;19.20;57.60;;;;;;5120169;27;20045;-83
2021/05/24 11:45:33;;;;;;;17.10;8.60;;;18.80;57.70;;;;;;5138225;27;20058;-82
2021/05/24 11:48:00;;;;;;;14.07;7.80;;;18.70;58.10;;;;;;5119936;27;20039;-82
2021/05/24 11:50:27;;;;;;;15.45;8.50;;;18.60;58.00;;;;;;5136910;27;20483;-82
2021/05/24 11:52:54;;;;;;;11.30;4.95;;;18.60;58.00;;;;;;5119959;27;20031;-82
2021/05/24 11:55:21;;;;;;;15.25;6.07;;;18.50;58.00;;;;;;5119549;27;20030;-82
2021/05/24 11:57:48;;;;;;;7.40;4.40;;;18.40;57.80;;;;;;5136802;27;20403;-82
2021/05/24 12:00:20;;;;;;;14.32;8.48;;;18.30;58.60;;;;;;5137081;27;20122;-82
2021/05/24 12:02:46;;;;;;;9.57;4.60;;;18.20;59.00;;;;;;5120105;27;20175;-82
2021/05/24 12:05:19;;;;;;;9.73;4.30;;;18.00;59.30;;;;;;5136689;27;20046;-82
2021/05/24 12:07:53;;;;;;;7.57;3.50;;;17.90;59.30;;;;;;5136365;27;20073;-81
2021/05/24 12:10:23;;;;;;;10.38;4.68;;;17.80;59.10;;;;;;5119798;27;20050;-81
2021/05/24 12:12:49;;;;;;;10.95;6.68;;;17.70;60.00;;;;;;5136653;27;20031;-82
2021/05/24 12:15:17;;;;;;;10.05;5.20;;;17.70;60.00;;;;;;5119027;27;20072;-81
2021/05/24 12:18:05;;;;;;;6.32;3.38;;;17.50;60.10;;;;;;5136395;27;20036;-81
2021/05/24 12:20:32;;;;;;;7.03;4.57;;;17.40;60.30;;;;;;5119150;27;20031;-81
2021/05/24 12:22:58;;;;;;;7.05;3.40;;;17.40;61.00;;;;;;5118977;27;20069;-80
2021/05/24 12:25:25;;;;;;;4.82;2.60;;;17.40;61.20;;;;;;5117988;27;20120;-80
2021/05/24 12:27:52;;;;;;;7.97;4.38;;;17.40;60.00;;;;;;5136159;27;20035;-81
2021/05/24 12:30:42;;;;;;;14.70;7.13;;;17.60;59.80;;;;;;5135852;27;20031;-81
2021/05/24 12:33:12;;;;;;;9.27;5.53;;;17.90;59.50;;;;;;5119981;27;20047;-81
2021/05/24 12:36:02;;;;;;;6.78;3.50;;;18.30;59.00;;;;;;5135867;27;20027;-81
2021/05/24 12:41:18;;;;;;;6.23;3.23;;;18.50;58.20;;;;;;5136212;27;20569;-81
2021/05/24 12:44:05;;;;;;;7.32;4.82;;;18.40;58.80;;;;;;5135510;27;20555;-81
2021/05/24 12:46:41;;;;;;;8.10;3.55;;;18.30;59.30;;;;;;5136196;27;20091;-81
2021/05/24 12:49:09;;;;;;;8.30;4.90;;;18.20;59.40;;;;;;5118721;27;20039;-82
2021/05/24 12:51:35;;;;;;;8.13;4.25;;;18.10;59.40;;;;;;5118585;27;20555;-81
2021/05/24 12:54:22;;;;;;;7.75;4.20;;;18.00;59.00;;;;;;5135436;27;20024;-81
2021/05/24 12:56:48;;;;;;;9.43;4.63;;;17.90;60.00;;;;;;5135640;27;20027;-81
2021/05/24 12:59:38;;;;;;;13.20;4.40;;;17.80;59.50;;;;;;5135394;27;20494;-81
2021/05/24 13:02:04;;;;;;;8.80;4.03;;;17.90;60.30;;;;;;5118217;27;20390;-81
2021/05/24 13:04:36;;;;;;;;;;;17.80;60.10;;;;;;5118743;27;20113;-80
2021/05/24 13:07:12;;;;;;;6.97;3.70;;;17.80;59.80;;;;;;5136366;27;19959;-81
2021/05/24 13:09:40;;;;;;;10.30;4.95;;;17.80;59.70;;;;;;5135273;27;20066;-81
2021/05/24 13:12:09;;;;;;;12.95;5.35;;;17.80;59.30;;;;;;5118292;27;20031;-82
2021/05/24 13:14:38;;;;;;;15.88;5.07;;;17.80;59.80;;;;;;5118436;27;20035;-82
2021/05/24 13:29:46;;;;;;;7.47;4.15;;;17.60;60.10;;;;;;5136475;27;20697;-81